Tohshi — 3EJO5 — position and weather

sailwx.info

Track history (hours):
 
Tides and Currents Weather Stations Pressure Air Temp Water Temp Dewpoint Dewpoint Depression Visibility Wind Speed Wind Dir Waves Ship Positions

Tohshi

Last reported at 2017-Jun-06 17:27 UTC. Time now 2017-Jun-28 22:45 UTC.
Position N 02°03' E 102°09'.
Warning: this ship's position is 22 days out of date.

Length 333 m; beam 60 m.

Type: Tanker. MMSI: 372582000.

Date/timePositionNaut miles runAvg speedWind from/ knotsBaromVisibWave heightAir tempDewpointWater temp
2017-Jun-06 17:27N 02°03' E 102°09'715.2
2017-Jun-06 17:00N 01°59' E 102°15'714.9
2017-Jun-06 16:30N 01°55' E 102°21'714.7
2017-Jun-06 16:00N 01°52' E 102°28'714.6
2017-Jun-06 15:30N 01°49' E 102°34'714.5
2017-Jun-06 15:00N 01°45' E 102°40'714.0
2017-Jun-06 14:31N 01°41' E 102°46'4013.8
2017-Jun-06 11:35N 01°18' E 103°19'115.1
2017-Jun-06 11:29N 01°17' E 103°20'714.7
2017-Jun-06 10:59N 01°13' E 103°27'715.1
2017-Jun-06 10:31N 01°11' E 103°34'611.7
2017-Jun-06 10:00N 01°11' E 103°39'2 4.5
2017-Jun-06 09:30N 01°09' E 103°41'4 8.2
2017-Jun-06 09:00N 01°09' E 103°45'510.7
2017-Jun-06 08:30N 01°11' E 103°50'611.2
2017-Jun-06 08:00N 01°14' E 103°55'611.9
2017-Jun-06 07:30N 01°15' E 104°01'611.6
2017-Jun-06 06:59N 01°16' E 104°07'  
Track history (hours):
 
Tides and Currents Weather Stations Pressure Air Temp Water Temp Dewpoint Dewpoint Depression Visibility Wind Speed Wind Dir Waves Ship Positions

Tohshi

Last reported at 2017-Jun-06 17:27 UTC. Time now 2017-Jun-28 22:45 UTC.
Position N 02°03' E 102°09'.
Warning: this ship's position is 22 days out of date.

Length 333 m; beam 60 m.

Type: Tanker. MMSI: 372582000.

Date/timePositionNaut miles runAvg speedWind from/ knotsBaromVisibWave heightAir tempDewpointWater temp
2017-Jun-06 17:27N 02°03' E 102°09'715.2
2017-Jun-06 17:00N 01°59' E 102°15'714.9
2017-Jun-06 16:30N 01°55' E 102°21'714.7
2017-Jun-06 16:00N 01°52' E 102°28'714.6
2017-Jun-06 15:30N 01°49' E 102°34'714.5
2017-Jun-06 15:00N 01°45' E 102°40'714.0
2017-Jun-06 14:31N 01°41' E 102°46'4013.8
2017-Jun-06 11:35N 01°18' E 103°19'115.1
2017-Jun-06 11:29N 01°17' E 103°20'714.7
2017-Jun-06 10:59N 01°13' E 103°27'715.1
2017-Jun-06 10:31N 01°11' E 103°34'611.7
2017-Jun-06 10:00N 01°11' E 103°39'2 4.5
2017-Jun-06 09:30N 01°09' E 103°41'4 8.2
2017-Jun-06 09:00N 01°09' E 103°45'510.7
2017-Jun-06 08:30N 01°11' E 103°50'611.2
2017-Jun-06 08:00N 01°14' E 103°55'611.9
2017-Jun-06 07:30N 01°15' E 104°01'611.6
2017-Jun-06 06:59N 01°16' E 104°07'  

Dump ship's entire track history